Meadowcreek, Virginia
Current Conditions -  °F | °C
As of 2:55 PM on Saturday 25 Oct 2014 (Local Time) from KHLX Reporting Station
Clear Clear  
Wind Chill: 64°   Ceiling: Unl
Heat Index: 64°   Visibility: 10mi
Dew Point: 41°   Wind: 14mph
Humidity: 43%   Direction: 270°W
Pressure: 29.99"   Gusts: 17mph
Location:  36.6484°N, 80.9203°W
Report Text: KHLX 251855Z AUTO 27012G15KT 240V300 10SM CLR 18/05 A2999 RMK AO2 T01770049
Loading
Personal Weather Stations






























Interactive Weather Map
Tropical Storm Tracking
New forecast layout! Learn more

10-Day Weather Forecast

Advertisements
Track Severe Weather on mobile